Tyne, United Kingdom
Current Conditions -  °F | °C
As of 6:20 PM on Thursday 18 Dec 2014 (Local Time) from EGNT Reporting Station
Few Clouds Few Clouds  
Wind Chill:   Ceiling: Unl
Heat Index:   Visibility: 6mi
Dew Point:   Wind: 24mph
Humidity: 87%   Direction: 260°W
Pressure: 29.41"   Gusts: NA
Location:  55°N, 1.7°W
Report Text: EGNT 181820Z 26021KT 9999 FEW025 09/07 Q0996
Loading
Personal Weather Stations






























Interactive Weather Map New forecast layout! Learn more

10-Day Weather Forecast

Advertisements
Track Severe Weather on mobile